<?xml version="1.0" encoding="UTF-8" standalone="no" ?>
<gpx xmlns="http://www.topografix.com/GPX/1/1" xmlns:xsi="http://www.w3.org/2001/XMLSchema-instance" xsi:schemaLocation="http://www.topografix.com/GPX/1/1 http://www.topografix.com/GPX/1/1/gpx.xsd" version="1.1" creator="VisuGPX - https://www.visugpx.com">
  <metadata>
    <name>GRPN_J6N165LaMenardais_21</name>
    <desc><![CDATA[gnerando]]></desc>
  </metadata>
  <trk>
    <name><![CDATA[[Itinéraire] GR de Pays du Pays Nantais®]]></name>
    <desc><![CDATA[Les communes situées au nord de la Loire sont plus vallonnées et boisées que celles du sud, consacrés principalement aux cultures maraîchères et à la vigne. Sur le plan géologique, la zone plus plate du sud a permis au cours des millénaires la formation du marais de Goulaine ainsi que celle du lac de Grand-Lieu; au nord, les vallons plus encaissés sont parcourus par de petites rivières qui toutes se jettent dans l'Erdre, affluent majeur de la Loire qui coupe le pays en deux. Cette frontière importante se fait sentir dans les paysages et dans l'architecture des bâtis (par exemple, toits en ardoise au nord et en tuile au sud)Modifié: 46 semaines]]></desc>
    <extensions>
      <line xmlns="http://www.topografix.com/GPX/gpx_style/0/2">
        <color>00FF00</color>
        <width>4</width>
      </line>
    </extensions>
    <trkseg>
      <trkpt lat="47.309" lon="-1.61847">
        <ele>58.2</ele>
        <time>2023-04-25T07:42:58.000Z</time>
      </trkpt>
      <trkpt lat="47.30906" lon="-1.61804">
        <ele>56.7</ele>
        <time>2023-04-25T07:43:23.748Z</time>
      </trkpt>
      <trkpt lat="47.30904" lon="-1.61734">
        <ele>55.3</ele>
        <time>2023-04-25T07:44:06.708Z</time>
      </trkpt>
      <trkpt lat="47.30839" lon="-1.61714">
        <ele>57.2</ele>
        <time>2023-04-25T07:45:18.507Z</time>
      </trkpt>
      <trkpt lat="47.30826" lon="-1.61704">
        <ele>57.3</ele>
        <time>2023-04-25T07:45:33.311Z</time>
      </trkpt>
      <trkpt lat="47.30805" lon="-1.61663">
        <ele>54.9</ele>
        <time>2023-04-25T07:46:03.448Z</time>
      </trkpt>
      <trkpt lat="47.30785" lon="-1.61611">
        <ele>53.7</ele>
        <time>2023-04-25T07:46:40.091Z</time>
      </trkpt>
      <trkpt lat="47.30755" lon="-1.61561">
        <ele>51.6</ele>
        <time>2023-04-25T07:47:19.250Z</time>
      </trkpt>
      <trkpt lat="47.30736" lon="-1.61493">
        <ele>48.4</ele>
        <time>2023-04-25T07:48:02.387Z</time>
      </trkpt>
      <trkpt lat="47.30675" lon="-1.61483">
        <ele>50.1</ele>
        <time>2023-04-25T07:49:08.560Z</time>
      </trkpt>
      <trkpt lat="47.30677" lon="-1.61469">
        <ele>49.5</ele>
        <time>2023-04-25T07:49:16.952Z</time>
      </trkpt>
      <trkpt lat="47.30733" lon="-1.61376">
        <ele>44.7</ele>
        <time>2023-04-25T07:50:29.903Z</time>
      </trkpt>
      <trkpt lat="47.3073" lon="-1.61337">
        <ele>44</ele>
        <time>2023-04-25T07:50:54.199Z</time>
      </trkpt>
      <trkpt lat="47.30733" lon="-1.61283">
        <ele>41.9</ele>
        <time>2023-04-25T07:51:25.978Z</time>
      </trkpt>
      <trkpt lat="47.30759" lon="-1.61186">
        <ele>39</ele>
        <time>2023-04-25T07:52:27.798Z</time>
      </trkpt>
      <trkpt lat="47.30777" lon="-1.61151">
        <ele>38.4</ele>
        <time>2023-04-25T07:52:55.494Z</time>
      </trkpt>
      <trkpt lat="47.30803" lon="-1.61118">
        <ele>37.2</ele>
        <time>2023-04-25T07:53:26.013Z</time>
      </trkpt>
      <trkpt lat="47.30806" lon="-1.60846">
        <ele>37.1</ele>
        <time>2023-04-25T07:56:28.058Z</time>
      </trkpt>
      <trkpt lat="47.30801" lon="-1.60798">
        <ele>39.6</ele>
        <time>2023-04-25T07:57:09.653Z</time>
      </trkpt>
      <trkpt lat="47.30795" lon="-1.60782">
        <ele>40.7</ele>
        <time>2023-04-25T07:57:26.013Z</time>
      </trkpt>
      <trkpt lat="47.30767" lon="-1.60791">
        <ele>42.5</ele>
        <time>2023-04-25T07:58:00.655Z</time>
      </trkpt>
      <trkpt lat="47.30722" lon="-1.60813">
        <ele>45.4</ele>
        <time>2023-04-25T07:58:57.651Z</time>
      </trkpt>
      <trkpt lat="47.30715" lon="-1.60749">
        <ele>48.2</ele>
        <time>2023-04-25T07:59:50.944Z</time>
      </trkpt>
      <trkpt lat="47.30662" lon="-1.60805">
        <ele>50.2</ele>
        <time>2023-04-25T08:01:01.910Z</time>
      </trkpt>
      <trkpt lat="47.3065" lon="-1.60812">
        <ele>50.3</ele>
        <time>2023-04-25T08:01:14.977Z</time>
      </trkpt>
      <trkpt lat="47.30569" lon="-1.60832">
        <ele>53.1</ele>
        <time>2023-04-25T08:02:45.354Z</time>
      </trkpt>
      <trkpt lat="47.30522" lon="-1.60858">
        <ele>55.4</ele>
        <time>2023-04-25T08:03:42.730Z</time>
      </trkpt>
      <trkpt lat="47.30495" lon="-1.60867">
        <ele>57.2</ele>
        <time>2023-04-25T08:04:16.440Z</time>
      </trkpt>
      <trkpt lat="47.30387" lon="-1.60853">
        <ele>59</ele>
        <time>2023-04-25T08:06:09.298Z</time>
      </trkpt>
      <trkpt lat="47.30347" lon="-1.60841">
        <ele>59.4</ele>
        <time>2023-04-25T08:06:50.894Z</time>
      </trkpt>
      <trkpt lat="47.30308" lon="-1.60837">
        <ele>59.1</ele>
        <time>2023-04-25T08:07:28.644Z</time>
      </trkpt>
      <trkpt lat="47.30257" lon="-1.60767">
        <ele>60</ele>
        <time>2023-04-25T08:08:40.337Z</time>
      </trkpt>
      <trkpt lat="47.30205" lon="-1.60686">
        <ele>60.6</ele>
        <time>2023-04-25T08:09:56.969Z</time>
      </trkpt>
      <trkpt lat="47.30141" lon="-1.60605">
        <ele>62</ele>
        <time>2023-04-25T08:11:24.763Z</time>
      </trkpt>
      <trkpt lat="47.30008" lon="-1.60418">
        <ele>65</ele>
        <time>2023-04-25T08:14:35.892Z</time>
      </trkpt>
      <trkpt lat="47.30151" lon="-1.60346">
        <ele>64</ele>
        <time>2023-04-25T08:17:02.272Z</time>
      </trkpt>
      <trkpt lat="47.29666" lon="-1.59903">
        <ele>62</ele>
        <time>2023-04-25T08:26:20.225Z</time>
      </trkpt>
      <trkpt lat="47.29572" lon="-1.59706">
        <ele>59.6</ele>
        <time>2023-04-25T08:28:54.642Z</time>
      </trkpt>
      <trkpt lat="47.29563" lon="-1.59712">
        <ele>59.3</ele>
        <time>2023-04-25T08:29:03.550Z</time>
      </trkpt>
      <trkpt lat="47.29544" lon="-1.59713">
        <ele>58.9</ele>
        <time>2023-04-25T08:29:21.181Z</time>
      </trkpt>
      <trkpt lat="47.29419" lon="-1.59708">
        <ele>55</ele>
        <time>2023-04-25T08:31:13.688Z</time>
      </trkpt>
      <trkpt lat="47.294" lon="-1.59391">
        <ele>56.5</ele>
        <time>2023-04-25T08:34:51.694Z</time>
      </trkpt>
      <trkpt lat="47.294" lon="-1.59364">
        <ele>55.5</ele>
        <time>2023-04-25T08:35:07.535Z</time>
      </trkpt>
      <trkpt lat="47.29405" lon="-1.59348">
        <ele>55.3</ele>
        <time>2023-04-25T08:35:18.759Z</time>
      </trkpt>
      <trkpt lat="47.29383" lon="-1.59209">
        <ele>48.6</ele>
        <time>2023-04-25T08:36:42.498Z</time>
      </trkpt>
      <trkpt lat="47.29367" lon="-1.59174">
        <ele>45.5</ele>
        <time>2023-04-25T08:37:07.261Z</time>
      </trkpt>
      <trkpt lat="47.29384" lon="-1.5913">
        <ele>43.2</ele>
        <time>2023-04-25T08:37:36.969Z</time>
      </trkpt>
      <trkpt lat="47.29402" lon="-1.59109">
        <ele>42.4</ele>
        <time>2023-04-25T08:37:57.399Z</time>
      </trkpt>
      <trkpt lat="47.29406" lon="-1.59092">
        <ele>41.9</ele>
        <time>2023-04-25T08:38:08.067Z</time>
      </trkpt>
      <trkpt lat="47.29428" lon="-1.59055">
        <ele>41.4</ele>
        <time>2023-04-25T08:38:39.585Z</time>
      </trkpt>
      <trkpt lat="47.2946" lon="-1.59021">
        <ele>41.3</ele>
        <time>2023-04-25T08:39:18.275Z</time>
      </trkpt>
      <trkpt lat="47.29468" lon="-1.58998">
        <ele>41.4</ele>
        <time>2023-04-25T08:39:35.914Z</time>
      </trkpt>
      <trkpt lat="47.29465" lon="-1.58935">
        <ele>39.1</ele>
        <time>2023-04-25T08:40:12.965Z</time>
      </trkpt>
      <trkpt lat="47.29457" lon="-1.58908">
        <ele>37.6</ele>
        <time>2023-04-25T08:40:30.251Z</time>
      </trkpt>
      <trkpt lat="47.2945" lon="-1.58835">
        <ele>35.5</ele>
        <time>2023-04-25T08:41:13.831Z</time>
      </trkpt>
      <trkpt lat="47.2945" lon="-1.58817">
        <ele>35.3</ele>
        <time>2023-04-25T08:41:25.312Z</time>
      </trkpt>
      <trkpt lat="47.29461" lon="-1.58774">
        <ele>35.1</ele>
        <time>2023-04-25T08:41:55.525Z</time>
      </trkpt>
      <trkpt lat="47.29461" lon="-1.58762">
        <ele>34.8</ele>
        <time>2023-04-25T08:42:02.726Z</time>
      </trkpt>
      <trkpt lat="47.29455" lon="-1.5874">
        <ele>34</ele>
        <time>2023-04-25T08:42:16.637Z</time>
      </trkpt>
      <trkpt lat="47.29459" lon="-1.58637">
        <ele>33.5</ele>
        <time>2023-04-25T08:43:24.312Z</time>
      </trkpt>
      <trkpt lat="47.29442" lon="-1.58468">
        <ele>32.8</ele>
        <time>2023-04-25T08:45:16.760Z</time>
      </trkpt>
      <trkpt lat="47.29435" lon="-1.58445">
        <ele>32.7</ele>
        <time>2023-04-25T08:45:33.362Z</time>
      </trkpt>
      <trkpt lat="47.29463" lon="-1.58393">
        <ele>34.9</ele>
        <time>2023-04-25T08:46:25.346Z</time>
      </trkpt>
      <trkpt lat="47.2942" lon="-1.58225">
        <ele>38</ele>
        <time>2023-04-25T08:48:35.717Z</time>
      </trkpt>
      <trkpt lat="47.29427" lon="-1.58187">
        <ele>38.6</ele>
        <time>2023-04-25T08:49:04.037Z</time>
      </trkpt>
      <trkpt lat="47.29427" lon="-1.58172">
        <ele>38.6</ele>
        <time>2023-04-25T08:49:14.094Z</time>
      </trkpt>
      <trkpt lat="47.29415" lon="-1.58116">
        <ele>39.8</ele>
        <time>2023-04-25T08:49:57.373Z</time>
      </trkpt>
      <trkpt lat="47.29388" lon="-1.58048">
        <ele>38.7</ele>
        <time>2023-04-25T08:50:47.001Z</time>
      </trkpt>
      <trkpt lat="47.29386" lon="-1.58034">
        <ele>38.2</ele>
        <time>2023-04-25T08:50:55.395Z</time>
      </trkpt>
      <trkpt lat="47.29345" lon="-1.58044">
        <ele>38</ele>
        <time>2023-04-25T08:51:35.875Z</time>
      </trkpt>
      <trkpt lat="47.29299" lon="-1.57934">
        <ele>30.3</ele>
        <time>2023-04-25T08:52:51.691Z</time>
      </trkpt>
      <trkpt lat="47.29271" lon="-1.57887">
        <ele>25.8</ele>
        <time>2023-04-25T08:53:28.392Z</time>
      </trkpt>
      <trkpt lat="47.29264" lon="-1.57868">
        <ele>23.8</ele>
        <time>2023-04-25T08:53:41.077Z</time>
      </trkpt>
      <trkpt lat="47.29254" lon="-1.57865">
        <ele>22.6</ele>
        <time>2023-04-25T08:53:49.905Z</time>
      </trkpt>
      <trkpt lat="47.29239" lon="-1.57838">
        <ele>19.6</ele>
        <time>2023-04-25T08:54:10.381Z</time>
      </trkpt>
      <trkpt lat="47.29231" lon="-1.57805">
        <ele>18.2</ele>
        <time>2023-04-25T08:54:30.942Z</time>
      </trkpt>
      <trkpt lat="47.29228" lon="-1.57746">
        <ele>15.3</ele>
        <time>2023-04-25T08:55:05.654Z</time>
      </trkpt>
      <trkpt lat="47.2921" lon="-1.57678">
        <ele>14.4</ele>
        <time>2023-04-25T08:55:51.963Z</time>
      </trkpt>
      <trkpt lat="47.29216" lon="-1.57646">
        <ele>14.4</ele>
        <time>2023-04-25T08:56:14.224Z</time>
      </trkpt>
      <trkpt lat="47.2925" lon="-1.57559">
        <ele>13.9</ele>
        <time>2023-04-25T08:57:20.051Z</time>
      </trkpt>
      <trkpt lat="47.29259" lon="-1.57526">
        <ele>14.4</ele>
        <time>2023-04-25T08:57:45.492Z</time>
      </trkpt>
      <trkpt lat="47.29284" lon="-1.57324">
        <ele>14.6</ele>
        <time>2023-04-25T09:00:03.781Z</time>
      </trkpt>
      <trkpt lat="47.29303" lon="-1.57242">
        <ele>14.1</ele>
        <time>2023-04-25T09:01:00.388Z</time>
      </trkpt>
      <trkpt lat="47.2933" lon="-1.57173">
        <ele>15</ele>
        <time>2023-04-25T09:01:56.640Z</time>
      </trkpt>
      <trkpt lat="47.29337" lon="-1.57131">
        <ele>15.4</ele>
        <time>2023-04-25T09:02:26.892Z</time>
      </trkpt>
      <trkpt lat="47.29335" lon="-1.57107">
        <ele>15.4</ele>
        <time>2023-04-25T09:02:43.105Z</time>
      </trkpt>
      <trkpt lat="47.29328" lon="-1.57081">
        <ele>14.9</ele>
        <time>2023-04-25T09:03:00.423Z</time>
      </trkpt>
      <trkpt lat="47.29301" lon="-1.57006">
        <ele>18.5</ele>
        <time>2023-04-25T09:04:09.969Z</time>
      </trkpt>
      <trkpt lat="47.29291" lon="-1.5699">
        <ele>19.2</ele>
        <time>2023-04-25T09:04:26.925Z</time>
      </trkpt>
      <trkpt lat="47.29291" lon="-1.56942">
        <ele>17.1</ele>
        <time>2023-04-25T09:04:55.086Z</time>
      </trkpt>
      <trkpt lat="47.29265" lon="-1.56767">
        <ele>9.8</ele>
        <time>2023-04-25T09:06:40.192Z</time>
      </trkpt>
      <trkpt lat="47.29236" lon="-1.56783">
        <ele>10.4</ele>
        <time>2023-04-25T09:07:12.707Z</time>
      </trkpt>
      <trkpt lat="47.29138" lon="-1.56821">
        <ele>17.5</ele>
        <time>2023-04-25T09:09:18.208Z</time>
      </trkpt>
      <trkpt lat="47.29091" lon="-1.56808">
        <ele>15.2</ele>
        <time>2023-04-25T09:09:59.573Z</time>
      </trkpt>
      <trkpt lat="47.29065" lon="-1.56771">
        <ele>13.1</ele>
        <time>2023-04-25T09:10:30.831Z</time>
      </trkpt>
      <trkpt lat="47.29039" lon="-1.56688">
        <ele>10.9</ele>
        <time>2023-04-25T09:11:25.921Z</time>
      </trkpt>
      <trkpt lat="47.29014" lon="-1.56636">
        <ele>10.1</ele>
        <time>2023-04-25T09:12:06.319Z</time>
      </trkpt>
      <trkpt lat="47.28998" lon="-1.56606">
        <ele>8</ele>
        <time>2023-04-25T09:12:28.710Z</time>
      </trkpt>
      <trkpt lat="47.28984" lon="-1.56596">
        <ele>8.5</ele>
        <time>2023-04-25T09:12:45.723Z</time>
      </trkpt>
      <trkpt lat="47.28968" lon="-1.56598">
        <ele>9.3</ele>
        <time>2023-04-25T09:13:04.318Z</time>
      </trkpt>
      <trkpt lat="47.28946" lon="-1.56632">
        <ele>8.8</ele>
        <time>2023-04-25T09:13:34.355Z</time>
      </trkpt>
      <trkpt lat="47.28924" lon="-1.56683">
        <ele>9.8</ele>
        <time>2023-04-25T09:14:18.093Z</time>
      </trkpt>
      <trkpt lat="47.28914" lon="-1.56746">
        <ele>10.3</ele>
        <time>2023-04-25T09:15:03.039Z</time>
      </trkpt>
      <trkpt lat="47.28888" lon="-1.56804">
        <ele>7.9</ele>
        <time>2023-04-25T09:15:43.829Z</time>
      </trkpt>
      <trkpt lat="47.28858" lon="-1.56839">
        <ele>9.8</ele>
        <time>2023-04-25T09:16:28.110Z</time>
      </trkpt>
      <trkpt lat="47.28819" lon="-1.56851">
        <ele>12.1</ele>
        <time>2023-04-25T09:17:15.465Z</time>
      </trkpt>
      <trkpt lat="47.28765" lon="-1.56846">
        <ele>10.8</ele>
        <time>2023-04-25T09:18:05.194Z</time>
      </trkpt>
      <trkpt lat="47.28689" lon="-1.5682">
        <ele>10.5</ele>
        <time>2023-04-25T09:19:21.417Z</time>
      </trkpt>
      <trkpt lat="47.28639" lon="-1.5679">
        <ele>8.7</ele>
        <time>2023-04-25T09:20:09.677Z</time>
      </trkpt>
      <trkpt lat="47.28575" lon="-1.56763">
        <ele>8.7</ele>
        <time>2023-04-25T09:21:15.486Z</time>
      </trkpt>
      <trkpt lat="47.28516" lon="-1.56702">
        <ele>10.9</ele>
        <time>2023-04-25T09:22:33.888Z</time>
      </trkpt>
      <trkpt lat="47.28502" lon="-1.56671">
        <ele>10.2</ele>
        <time>2023-04-25T09:22:56.853Z</time>
      </trkpt>
      <trkpt lat="47.28507" lon="-1.56593">
        <ele>8.7</ele>
        <time>2023-04-25T09:23:45.093Z</time>
      </trkpt>
      <trkpt lat="47.285" lon="-1.56572">
        <ele>8.2</ele>
        <time>2023-04-25T09:23:59.361Z</time>
      </trkpt>
      <trkpt lat="47.28469" lon="-1.56567">
        <ele>8.5</ele>
        <time>2023-04-25T09:24:31.122Z</time>
      </trkpt>
      <trkpt lat="47.28432" lon="-1.56604">
        <ele>8.4</ele>
        <time>2023-04-25T09:25:15.018Z</time>
      </trkpt>
      <trkpt lat="47.28392" lon="-1.56731">
        <ele>10</ele>
        <time>2023-04-25T09:26:53.970Z</time>
      </trkpt>
      <trkpt lat="47.28378" lon="-1.56792">
        <ele>13.2</ele>
        <time>2023-04-25T09:27:48.657Z</time>
      </trkpt>
      <trkpt lat="47.2836" lon="-1.56822">
        <ele>13.5</ele>
        <time>2023-04-25T09:28:16.451Z</time>
      </trkpt>
      <trkpt lat="47.28355" lon="-1.5679">
        <ele>12.8</ele>
        <time>2023-04-25T09:28:36.479Z</time>
      </trkpt>
      <trkpt lat="47.28352" lon="-1.56733">
        <ele>12</ele>
        <time>2023-04-25T09:29:12.490Z</time>
      </trkpt>
      <trkpt lat="47.2838" lon="-1.56633">
        <ele>9.1</ele>
        <time>2023-04-25T09:30:16.918Z</time>
      </trkpt>
      <trkpt lat="47.28368" lon="-1.56608">
        <ele>8.6</ele>
        <time>2023-04-25T09:30:36.010Z</time>
      </trkpt>
      <trkpt lat="47.28319" lon="-1.56587">
        <ele>8.6</ele>
        <time>2023-04-25T09:31:26.456Z</time>
      </trkpt>
      <trkpt lat="47.28278" lon="-1.56578">
        <ele>8.6</ele>
        <time>2023-04-25T09:32:07.435Z</time>
      </trkpt>
      <trkpt lat="47.28257" lon="-1.5659">
        <ele>8</ele>
        <time>2023-04-25T09:32:27.974Z</time>
      </trkpt>
      <trkpt lat="47.282" lon="-1.56653">
        <ele>9.3</ele>
        <time>2023-04-25T09:33:42.521Z</time>
      </trkpt>
      <trkpt lat="47.28146" lon="-1.56671">
        <ele>8</ele>
        <time>2023-04-25T09:34:33.488Z</time>
      </trkpt>
      <trkpt lat="47.2806" lon="-1.5668">
        <ele>7.2</ele>
        <time>2023-04-25T09:35:56.333Z</time>
      </trkpt>
      <trkpt lat="47.28041" lon="-1.56688">
        <ele>7.4</ele>
        <time>2023-04-25T09:36:16.489Z</time>
      </trkpt>
      <trkpt lat="47.28005" lon="-1.56691">
        <ele>7.9</ele>
        <time>2023-04-25T09:36:53.703Z</time>
      </trkpt>
      <trkpt lat="47.27998" lon="-1.5667">
        <ele>7.2</ele>
        <time>2023-04-25T09:37:07.453Z</time>
      </trkpt>
      <trkpt lat="47.27946" lon="-1.56688">
        <ele>8.3</ele>
        <time>2023-04-25T09:38:03.760Z</time>
      </trkpt>
      <trkpt lat="47.27936" lon="-1.56606">
        <ele>7.4</ele>
        <time>2023-04-25T09:38:56.989Z</time>
      </trkpt>
      <trkpt lat="47.27924" lon="-1.56569">
        <ele>11.2</ele>
        <time>2023-04-25T09:39:40.488Z</time>
      </trkpt>
      <trkpt lat="47.27902" lon="-1.5657">
        <ele>9.4</ele>
        <time>2023-04-25T09:39:59.527Z</time>
      </trkpt>
      <trkpt lat="47.2785" lon="-1.56518">
        <ele>8.2</ele>
        <time>2023-04-25T09:40:58.141Z</time>
      </trkpt>
      <trkpt lat="47.27849" lon="-1.56514">
        <ele>8.2</ele>
        <time>2023-04-25T09:41:01.000Z</time>
      </trkpt>
      <trkpt lat="47.27857" lon="-1.56458">
        <ele>12</ele>
        <time>2023-04-25T09:41:53.882Z</time>
      </trkpt>
      <trkpt lat="47.27858" lon="-1.56426">
        <ele>14</ele>
        <time>2023-04-25T09:42:22.890Z</time>
      </trkpt>
      <trkpt lat="47.27855" lon="-1.564">
        <ele>15.6</ele>
        <time>2023-04-25T09:42:46.558Z</time>
      </trkpt>
      <trkpt lat="47.27839" lon="-1.56361">
        <ele>18.6</ele>
        <time>2023-04-25T09:43:28.549Z</time>
      </trkpt>
      <trkpt lat="47.27832" lon="-1.56354">
        <ele>19.1</ele>
        <time>2023-04-25T09:43:38.649Z</time>
      </trkpt>
      <trkpt lat="47.27806" lon="-1.56285">
        <ele>28</ele>
        <time>2023-04-25T09:45:12.099Z</time>
      </trkpt>
      <trkpt lat="47.27778" lon="-1.56241">
        <ele>27.3</ele>
        <time>2023-04-25T09:45:50.505Z</time>
      </trkpt>
      <trkpt lat="47.27752" lon="-1.56174">
        <ele>26.5</ele>
        <time>2023-04-25T09:46:39.917Z</time>
      </trkpt>
      <trkpt lat="47.27736" lon="-1.56153">
        <ele>25.9</ele>
        <time>2023-04-25T09:46:59.376Z</time>
      </trkpt>
      <trkpt lat="47.27673" lon="-1.56126">
        <ele>22.9</ele>
        <time>2023-04-25T09:47:56.128Z</time>
      </trkpt>
      <trkpt lat="47.27656" lon="-1.5611">
        <ele>23.5</ele>
        <time>2023-04-25T09:48:18.017Z</time>
      </trkpt>
      <trkpt lat="47.27644" lon="-1.5609">
        <ele>24.4</ele>
        <time>2023-04-25T09:48:38.985Z</time>
      </trkpt>
      <trkpt lat="47.27634" lon="-1.56052">
        <ele>25.1</ele>
        <time>2023-04-25T09:49:08.574Z</time>
      </trkpt>
      <trkpt lat="47.27611" lon="-1.56012">
        <ele>20.6</ele>
        <time>2023-04-25T09:49:39.346Z</time>
      </trkpt>
      <trkpt lat="47.27602" lon="-1.56008">
        <ele>19.8</ele>
        <time>2023-04-25T09:49:47.477Z</time>
      </trkpt>
      <trkpt lat="47.27566" lon="-1.56021">
        <ele>17.3</ele>
        <time>2023-04-25T09:50:19.538Z</time>
      </trkpt>
      <trkpt lat="47.27538" lon="-1.56048">
        <ele>15.3</ele>
        <time>2023-04-25T09:50:48.481Z</time>
      </trkpt>
      <trkpt lat="47.27518" lon="-1.5608">
        <ele>11.6</ele>
        <time>2023-04-25T09:51:14.015Z</time>
      </trkpt>
      <trkpt lat="47.27498" lon="-1.56099">
        <ele>10.9</ele>
        <time>2023-04-25T09:51:35.537Z</time>
      </trkpt>
      <trkpt lat="47.27448" lon="-1.56104">
        <ele>12.2</ele>
        <time>2023-04-25T09:52:29.267Z</time>
      </trkpt>
      <trkpt lat="47.27362" lon="-1.56123">
        <ele>7.1</ele>
        <time>2023-04-25T09:53:44.489Z</time>
      </trkpt>
      <trkpt lat="47.2735" lon="-1.56117">
        <ele>7.3</ele>
        <time>2023-04-25T09:53:57.646Z</time>
      </trkpt>
      <trkpt lat="47.2734" lon="-1.56118">
        <ele>6.9</ele>
        <time>2023-04-25T09:54:06.435Z</time>
      </trkpt>
      <trkpt lat="47.27297" lon="-1.56087">
        <ele>6.3</ele>
        <time>2023-04-25T09:54:51.979Z</time>
      </trkpt>
      <trkpt lat="47.27272" lon="-1.56041">
        <ele>7.8</ele>
        <time>2023-04-25T09:55:36.472Z</time>
      </trkpt>
      <trkpt lat="47.27248" lon="-1.56031">
        <ele>7.7</ele>
        <time>2023-04-25T09:56:00.826Z</time>
      </trkpt>
      <trkpt lat="47.2722" lon="-1.56026">
        <ele>7.1</ele>
        <time>2023-04-25T09:56:26.963Z</time>
      </trkpt>
      <trkpt lat="47.27205" lon="-1.56013">
        <ele>7.7</ele>
        <time>2023-04-25T09:56:46.137Z</time>
      </trkpt>
      <trkpt lat="47.27164" lon="-1.55938">
        <ele>9.1</ele>
        <time>2023-04-25T09:57:55.206Z</time>
      </trkpt>
      <trkpt lat="47.27141" lon="-1.55887">
        <ele>9.6</ele>
        <time>2023-04-25T09:58:37.844Z</time>
      </trkpt>
      <trkpt lat="47.27129" lon="-1.55883">
        <ele>8.5</ele>
        <time>2023-04-25T09:58:48.486Z</time>
      </trkpt>
      <trkpt lat="47.27119" lon="-1.55872">
        <ele>8</ele>
        <time>2023-04-25T09:58:59.423Z</time>
      </trkpt>
      <trkpt lat="47.2711" lon="-1.55847">
        <ele>8.4</ele>
        <time>2023-04-25T09:59:19.681Z</time>
      </trkpt>
      <trkpt lat="47.27104" lon="-1.55803">
        <ele>12</ele>
        <time>2023-04-25T10:00:04.240Z</time>
      </trkpt>
      <trkpt lat="47.27071" lon="-1.55764">
        <ele>9</ele>
        <time>2023-04-25T10:00:40.830Z</time>
      </trkpt>
      <trkpt lat="47.27065" lon="-1.55746">
        <ele>8.3</ele>
        <time>2023-04-25T10:00:52.600Z</time>
      </trkpt>
      <trkpt lat="47.27056" lon="-1.55736">
        <ele>7.1</ele>
        <time>2023-04-25T10:01:02.350Z</time>
      </trkpt>
      <trkpt lat="47.27071" lon="-1.55652">
        <ele>8.8</ele>
        <time>2023-04-25T10:02:06.127Z</time>
      </trkpt>
      <trkpt lat="47.27051" lon="-1.55576">
        <ele>13.8</ele>
        <time>2023-04-25T10:03:19.539Z</time>
      </trkpt>
      <trkpt lat="47.27054" lon="-1.55548">
        <ele>15.6</ele>
        <time>2023-04-25T10:03:45.350Z</time>
      </trkpt>
      <trkpt lat="47.27052" lon="-1.55531">
        <ele>16.9</ele>
        <time>2023-04-25T10:04:02.049Z</time>
      </trkpt>
      <trkpt lat="47.27041" lon="-1.55509">
        <ele>19.2</ele>
        <time>2023-04-25T10:04:29.753Z</time>
      </trkpt>
      <trkpt lat="47.27032" lon="-1.55475">
        <ele>21.7</ele>
        <time>2023-04-25T10:05:03.847Z</time>
      </trkpt>
      <trkpt lat="47.27005" lon="-1.55294">
        <ele>28</ele>
        <time>2023-04-25T10:07:29.603Z</time>
      </trkpt>
      <trkpt lat="47.27002" lon="-1.55284">
        <ele>28</ele>
        <time>2023-04-25T10:07:36.938Z</time>
      </trkpt>
      <trkpt lat="47.26984" lon="-1.55259">
        <ele>28</ele>
        <time>2023-04-25T10:08:01.389Z</time>
      </trkpt>
      <trkpt lat="47.26974" lon="-1.55217">
        <ele>28</ele>
        <time>2023-04-25T10:08:31.246Z</time>
      </trkpt>
      <trkpt lat="47.2696" lon="-1.55223">
        <ele>28</ele>
        <time>2023-04-25T10:08:45.660Z</time>
      </trkpt>
      <trkpt lat="47.2692" lon="-1.55038">
        <ele>25</ele>
        <time>2023-04-25T10:10:47.208Z</time>
      </trkpt>
      <trkpt lat="47.26908" lon="-1.54999">
        <ele>24</ele>
        <time>2023-04-25T10:11:13.103Z</time>
      </trkpt>
      <trkpt lat="47.26929" lon="-1.54927">
        <ele>25.6</ele>
        <time>2023-04-25T10:12:10.876Z</time>
      </trkpt>
      <trkpt lat="47.26862" lon="-1.54651">
        <ele>32</ele>
        <time>2023-04-25T10:15:48.420Z</time>
      </trkpt>
      <trkpt lat="47.26862" lon="-1.54634">
        <ele>32</ele>
        <time>2023-04-25T10:15:59.824Z</time>
      </trkpt>
      <trkpt lat="47.26873" lon="-1.54603">
        <ele>32</ele>
        <time>2023-04-25T10:16:23.290Z</time>
      </trkpt>
      <trkpt lat="47.26875" lon="-1.54573">
        <ele>31.6</ele>
        <time>2023-04-25T10:16:42.344Z</time>
      </trkpt>
      <trkpt lat="47.26864" lon="-1.54561">
        <ele>31.2</ele>
        <time>2023-04-25T10:16:54.729Z</time>
      </trkpt>
      <trkpt lat="47.26837" lon="-1.54562">
        <ele>30.4</ele>
        <time>2023-04-25T10:17:19.143Z</time>
      </trkpt>
      <trkpt lat="47.26823" lon="-1.54557">
        <ele>30.4</ele>
        <time>2023-04-25T10:17:33.383Z</time>
      </trkpt>
      <trkpt lat="47.26774" lon="-1.54508">
        <ele>29.2</ele>
        <time>2023-04-25T10:18:28.426Z</time>
      </trkpt>
      <trkpt lat="47.26765" lon="-1.54507">
        <ele>29.1</ele>
        <time>2023-04-25T10:18:37.051Z</time>
      </trkpt>
      <trkpt lat="47.26754" lon="-1.54514">
        <ele>29.1</ele>
        <time>2023-04-25T10:18:48.896Z</time>
      </trkpt>
      <trkpt lat="47.26745" lon="-1.54491">
        <ele>28.2</ele>
        <time>2023-04-25T10:19:04.480Z</time>
      </trkpt>
      <trkpt lat="47.26738" lon="-1.5448">
        <ele>27.4</ele>
        <time>2023-04-25T10:19:13.332Z</time>
      </trkpt>
      <trkpt lat="47.26725" lon="-1.54471">
        <ele>27</ele>
        <time>2023-04-25T10:19:26.383Z</time>
      </trkpt>
      <trkpt lat="47.26672" lon="-1.54459">
        <ele>26.5</ele>
        <time>2023-04-25T10:20:17.901Z</time>
      </trkpt>
      <trkpt lat="47.26603" lon="-1.54471">
        <ele>25</ele>
        <time>2023-04-25T10:21:22.226Z</time>
      </trkpt>
      <trkpt lat="47.26596" lon="-1.54469">
        <ele>24.9</ele>
        <time>2023-04-25T10:21:28.980Z</time>
      </trkpt>
      <trkpt lat="47.26586" lon="-1.54457">
        <ele>24.5</ele>
        <time>2023-04-25T10:21:40.589Z</time>
      </trkpt>
      <trkpt lat="47.26572" lon="-1.544">
        <ele>23.8</ele>
        <time>2023-04-25T10:22:19.200Z</time>
      </trkpt>
      <trkpt lat="47.26567" lon="-1.54395">
        <ele>24.4</ele>
        <time>2023-04-25T10:22:27.472Z</time>
      </trkpt>
      <trkpt lat="47.26572" lon="-1.54389">
        <ele>25</ele>
        <time>2023-04-25T10:22:36.108Z</time>
      </trkpt>
      <trkpt lat="47.26624" lon="-1.54384">
        <ele>22.8</ele>
        <time>2023-04-25T10:23:21.496Z</time>
      </trkpt>
      <trkpt lat="47.26629" lon="-1.5438">
        <ele>22.7</ele>
        <time>2023-04-25T10:23:26.828Z</time>
      </trkpt>
      <trkpt lat="47.26636" lon="-1.54365">
        <ele>22.1</ele>
        <time>2023-04-25T10:23:37.513Z</time>
      </trkpt>
      <trkpt lat="47.26632" lon="-1.54332">
        <ele>21</ele>
        <time>2023-04-25T10:23:57.191Z</time>
      </trkpt>
      <trkpt lat="47.26624" lon="-1.54296">
        <ele>20.1</ele>
        <time>2023-04-25T10:24:20.059Z</time>
      </trkpt>
      <trkpt lat="47.26602" lon="-1.5424">
        <ele>17.6</ele>
        <time>2023-04-25T10:24:58.041Z</time>
      </trkpt>
      <trkpt lat="47.26516" lon="-1.54056">
        <ele>9.6</ele>
        <time>2023-04-25T10:27:09.187Z</time>
      </trkpt>
      <trkpt lat="47.26508" lon="-1.54047">
        <ele>9</ele>
        <time>2023-04-25T10:27:17.894Z</time>
      </trkpt>
      <trkpt lat="47.26484" lon="-1.53983">
        <ele>5.8</ele>
        <time>2023-04-25T10:28:00.816Z</time>
      </trkpt>
      <trkpt lat="47.26442" lon="-1.54003">
        <ele>6.2</ele>
        <time>2023-04-25T10:28:45.692Z</time>
      </trkpt>
      <trkpt lat="47.26426" lon="-1.53994">
        <ele>6.3</ele>
        <time>2023-04-25T10:29:02.930Z</time>
      </trkpt>
      <trkpt lat="47.26393" lon="-1.53992">
        <ele>6.5</ele>
        <time>2023-04-25T10:29:36.197Z</time>
      </trkpt>
      <trkpt lat="47.26356" lon="-1.53985">
        <ele>7.5</ele>
        <time>2023-04-25T10:30:16.303Z</time>
      </trkpt>
      <trkpt lat="47.26296" lon="-1.5395">
        <ele>12.5</ele>
        <time>2023-04-25T10:31:38.251Z</time>
      </trkpt>
      <trkpt lat="47.26255" lon="-1.53904">
        <ele>9</ele>
        <time>2023-04-25T10:32:22.826Z</time>
      </trkpt>
      <trkpt lat="47.26193" lon="-1.53854">
        <ele>10.3</ele>
        <time>2023-04-25T10:33:36.815Z</time>
      </trkpt>
      <trkpt lat="47.26162" lon="-1.53839">
        <ele>9.1</ele>
        <time>2023-04-25T10:34:05.691Z</time>
      </trkpt>
      <trkpt lat="47.26144" lon="-1.53836">
        <ele>8.5</ele>
        <time>2023-04-25T10:34:21.896Z</time>
      </trkpt>
      <trkpt lat="47.2611" lon="-1.53837">
        <ele>7.3</ele>
        <time>2023-04-25T10:34:52.125Z</time>
      </trkpt>
      <trkpt lat="47.2608" lon="-1.53844">
        <ele>6.7</ele>
        <time>2023-04-25T10:35:20.401Z</time>
      </trkpt>
      <trkpt lat="47.26019" lon="-1.53843">
        <ele>6.3</ele>
        <time>2023-04-25T10:36:19.508Z</time>
      </trkpt>
      <trkpt lat="47.25986" lon="-1.53849">
        <ele>6.5</ele>
        <time>2023-04-25T10:36:52.995Z</time>
      </trkpt>
      <trkpt lat="47.25957" lon="-1.53862">
        <ele>7</ele>
        <time>2023-04-25T10:37:24.538Z</time>
      </trkpt>
      <trkpt lat="47.2592" lon="-1.53892">
        <ele>7.2</ele>
        <time>2023-04-25T10:38:06.902Z</time>
      </trkpt>
      <trkpt lat="47.25831" lon="-1.53947">
        <ele>8.2</ele>
        <time>2023-04-25T10:39:45.423Z</time>
      </trkpt>
      <trkpt lat="47.25798" lon="-1.53957">
        <ele>8.7</ele>
        <time>2023-04-25T10:40:20.301Z</time>
      </trkpt>
      <trkpt lat="47.25758" lon="-1.53956">
        <ele>8.4</ele>
        <time>2023-04-25T10:40:58.951Z</time>
      </trkpt>
      <trkpt lat="47.25726" lon="-1.53939">
        <ele>7.8</ele>
        <time>2023-04-25T10:41:30.821Z</time>
      </trkpt>
      <trkpt lat="47.25704" lon="-1.53932">
        <ele>7.9</ele>
        <time>2023-04-25T10:41:53.378Z</time>
      </trkpt>
      <trkpt lat="47.25686" lon="-1.53931">
        <ele>7.7</ele>
        <time>2023-04-25T10:42:10.591Z</time>
      </trkpt>
      <trkpt lat="47.25677" lon="-1.53934">
        <ele>7.7</ele>
        <time>2023-04-25T10:42:19.713Z</time>
      </trkpt>
      <trkpt lat="47.25655" lon="-1.53931">
        <ele>6.6</ele>
        <time>2023-04-25T10:42:38.824Z</time>
      </trkpt>
      <trkpt lat="47.25634" lon="-1.53934">
        <ele>6.2</ele>
        <time>2023-04-25T10:42:58.512Z</time>
      </trkpt>
      <trkpt lat="47.25594" lon="-1.5396">
        <ele>6.8</ele>
        <time>2023-04-25T10:43:43.614Z</time>
      </trkpt>
      <trkpt lat="47.25581" lon="-1.53961">
        <ele>6.3</ele>
        <time>2023-04-25T10:43:55.079Z</time>
      </trkpt>
      <trkpt lat="47.25541" lon="-1.53822">
        <ele>8.6</ele>
        <time>2023-04-25T10:45:43.734Z</time>
      </trkpt>
      <trkpt lat="47.25568" lon="-1.5381">
        <ele>8.3</ele>
        <time>2023-04-25T10:46:10.721Z</time>
      </trkpt>
      <trkpt lat="47.25582" lon="-1.53795">
        <ele>7.3</ele>
        <time>2023-04-25T10:46:25.694Z</time>
      </trkpt>
      <trkpt lat="47.25602" lon="-1.53736">
        <ele>9.3</ele>
        <time>2023-04-25T10:47:16.668Z</time>
      </trkpt>
      <trkpt lat="47.2562" lon="-1.53699">
        <ele>9.1</ele>
        <time>2023-04-25T10:47:46.612Z</time>
      </trkpt>
      <trkpt lat="47.25633" lon="-1.53658">
        <ele>9.6</ele>
        <time>2023-04-25T10:48:18.552Z</time>
      </trkpt>
      <trkpt lat="47.2564" lon="-1.53652">
        <ele>9</ele>
        <time>2023-04-25T10:48:25.557Z</time>
      </trkpt>
      <trkpt lat="47.25679" lon="-1.53639">
        <ele>6.1</ele>
        <time>2023-04-25T10:49:00.145Z</time>
      </trkpt>
      <trkpt lat="47.2569" lon="-1.53629">
        <ele>5.9</ele>
        <time>2023-04-25T10:49:12.334Z</time>
      </trkpt>
      <trkpt lat="47.25698" lon="-1.53594">
        <ele>7</ele>
        <time>2023-04-25T10:49:40.804Z</time>
      </trkpt>
      <trkpt lat="47.25704" lon="-1.53582">
        <ele>7</ele>
        <time>2023-04-25T10:49:50.804Z</time>
      </trkpt>
      <trkpt lat="47.25726" lon="-1.53561">
        <ele>5.7</ele>
        <time>2023-04-25T10:50:13.479Z</time>
      </trkpt>
      <trkpt lat="47.2574" lon="-1.53521">
        <ele>6.9</ele>
        <time>2023-04-25T10:50:47.660Z</time>
      </trkpt>
      <trkpt lat="47.2576" lon="-1.53489">
        <ele>6.6</ele>
        <time>2023-04-25T10:51:15.954Z</time>
      </trkpt>
      <trkpt lat="47.25771" lon="-1.53453">
        <ele>7.6</ele>
        <time>2023-04-25T10:51:45.749Z</time>
      </trkpt>
      <trkpt lat="47.25793" lon="-1.53434">
        <ele>6.8</ele>
        <time>2023-04-25T10:52:08.680Z</time>
      </trkpt>
      <trkpt lat="47.25923" lon="-1.53384">
        <ele>6</ele>
        <time>2023-04-25T10:54:19.097Z</time>
      </trkpt>
      <trkpt lat="47.25935" lon="-1.53382">
        <ele>6</ele>
        <time>2023-04-25T10:54:31.036Z</time>
      </trkpt>
      <trkpt lat="47.25947" lon="-1.53387">
        <ele>6</ele>
        <time>2023-04-25T10:54:43.364Z</time>
      </trkpt>
      <trkpt lat="47.25995" lon="-1.53423">
        <ele>6.4</ele>
        <time>2023-04-25T10:55:37.846Z</time>
      </trkpt>
      <trkpt lat="47.26018" lon="-1.53435">
        <ele>6.1</ele>
        <time>2023-04-25T10:56:01.077Z</time>
      </trkpt>
      <trkpt lat="47.26029" lon="-1.53438">
        <ele>6.2</ele>
        <time>2023-04-25T10:56:12.447Z</time>
      </trkpt>
      <trkpt lat="47.26039" lon="-1.53434">
        <ele>6.2</ele>
        <time>2023-04-25T10:56:22.690Z</time>
      </trkpt>
      <trkpt lat="47.26051" lon="-1.53413">
        <ele>6.3</ele>
        <time>2023-04-25T10:56:41.416Z</time>
      </trkpt>
      <trkpt lat="47.26067" lon="-1.53429">
        <ele>5.8</ele>
        <time>2023-04-25T10:56:59.092Z</time>
      </trkpt>
      <trkpt lat="47.2609" lon="-1.53429">
        <ele>5.4</ele>
        <time>2023-04-25T10:57:20.656Z</time>
      </trkpt>
      <trkpt lat="47.26101" lon="-1.53433">
        <ele>5.1</ele>
        <time>2023-04-25T10:57:30.994Z</time>
      </trkpt>
      <trkpt lat="47.26131" lon="-1.53461">
        <ele>5.3</ele>
        <time>2023-04-25T10:58:06.716Z</time>
      </trkpt>
      <trkpt lat="47.26148" lon="-1.53489">
        <ele>5.9</ele>
        <time>2023-04-25T10:58:33.844Z</time>
      </trkpt>
      <trkpt lat="47.26157" lon="-1.53534">
        <ele>6</ele>
        <time>2023-04-25T10:59:05.625Z</time>
      </trkpt>
      <trkpt lat="47.2617" lon="-1.53559">
        <ele>7.1</ele>
        <time>2023-04-25T10:59:30.511Z</time>
      </trkpt>
      <trkpt lat="47.26203" lon="-1.53571">
        <ele>9.7</ele>
        <time>2023-04-25T11:00:13.531Z</time>
      </trkpt>
      <trkpt lat="47.26229" lon="-1.53589">
        <ele>10.5</ele>
        <time>2023-04-25T11:00:44.517Z</time>
      </trkpt>
      <trkpt lat="47.26236" lon="-1.5359">
        <ele>10.7</ele>
        <time>2023-04-25T11:00:52.118Z</time>
      </trkpt>
      <trkpt lat="47.26283" lon="-1.53567">
        <ele>12</ele>
        <time>2023-04-25T11:01:45.267Z</time>
      </trkpt>
      <trkpt lat="47.26316" lon="-1.53561">
        <ele>11.1</ele>
        <time>2023-04-25T11:02:15.552Z</time>
      </trkpt>
      <trkpt lat="47.26354" lon="-1.5356">
        <ele>8.6</ele>
        <time>2023-04-25T11:02:48.427Z</time>
      </trkpt>
      <trkpt lat="47.26423" lon="-1.53564">
        <ele>5.4</ele>
        <time>2023-04-25T11:03:48.158Z</time>
      </trkpt>
      <trkpt lat="47.2645" lon="-1.53548">
        <ele>6.7</ele>
        <time>2023-04-25T11:04:21.297Z</time>
      </trkpt>
      <trkpt lat="47.26468" lon="-1.53543">
        <ele>6.6</ele>
        <time>2023-04-25T11:04:39.104Z</time>
      </trkpt>
      <trkpt lat="47.26524" lon="-1.53551">
        <ele>6.2</ele>
        <time>2023-04-25T11:05:33.525Z</time>
      </trkpt>
      <trkpt lat="47.26581" lon="-1.53587">
        <ele>5.6</ele>
        <time>2023-04-25T11:06:33.043Z</time>
      </trkpt>
      <trkpt lat="47.26617" lon="-1.53601">
        <ele>5.7</ele>
        <time>2023-04-25T11:07:10.156Z</time>
      </trkpt>
      <trkpt lat="47.26667" lon="-1.53596">
        <ele>6.1</ele>
        <time>2023-04-25T11:08:00.937Z</time>
      </trkpt>
      <trkpt lat="47.26697" lon="-1.53582">
        <ele>5.9</ele>
        <time>2023-04-25T11:08:31.446Z</time>
      </trkpt>
      <trkpt lat="47.26722" lon="-1.53561">
        <ele>6.4</ele>
        <time>2023-04-25T11:09:01.473Z</time>
      </trkpt>
      <trkpt lat="47.26723" lon="-1.53551">
        <ele>7</ele>
        <time>2023-04-25T11:09:10.486Z</time>
      </trkpt>
      <trkpt lat="47.26708" lon="-1.53483">
        <ele>10.9</ele>
        <time>2023-04-25T11:10:12.712Z</time>
      </trkpt>
      <trkpt lat="47.26703" lon="-1.53423">
        <ele>12.7</ele>
        <time>2023-04-25T11:10:59.304Z</time>
      </trkpt>
      <trkpt lat="47.2675" lon="-1.534">
        <ele>8.5</ele>
        <time>2023-04-25T11:11:42.142Z</time>
      </trkpt>
      <trkpt lat="47.26765" lon="-1.53387">
        <ele>8.1</ele>
        <time>2023-04-25T11:11:58.185Z</time>
      </trkpt>
      <trkpt lat="47.26773" lon="-1.53386">
        <ele>8.2</ele>
        <time>2023-04-25T11:12:06.435Z</time>
      </trkpt>
      <trkpt lat="47.2679" lon="-1.53396">
        <ele>8.5</ele>
        <time>2023-04-25T11:12:25.476Z</time>
      </trkpt>
      <trkpt lat="47.26824" lon="-1.53429">
        <ele>6.7</ele>
        <time>2023-04-25T11:13:00.730Z</time>
      </trkpt>
      <trkpt lat="47.26833" lon="-1.53431">
        <ele>6.9</ele>
        <time>2023-04-25T11:13:10.366Z</time>
      </trkpt>
      <trkpt lat="47.26852" lon="-1.53421">
        <ele>7.1</ele>
        <time>2023-04-25T11:13:30.933Z</time>
      </trkpt>
      <trkpt lat="47.26862" lon="-1.53412">
        <ele>7.2</ele>
        <time>2023-04-25T11:13:42.827Z</time>
      </trkpt>
      <trkpt lat="47.26902" lon="-1.5335">
        <ele>7.8</ele>
        <time>2023-04-25T11:14:42.082Z</time>
      </trkpt>
      <trkpt lat="47.26903" lon="-1.53335">
        <ele>8.9</ele>
        <time>2023-04-25T11:14:56.492Z</time>
      </trkpt>
      <trkpt lat="47.26896" lon="-1.53313">
        <ele>10.3</ele>
        <time>2023-04-25T11:15:17.967Z</time>
      </trkpt>
      <trkpt lat="47.26908" lon="-1.53291">
        <ele>9.8</ele>
        <time>2023-04-25T11:15:35.462Z</time>
      </trkpt>
      <trkpt lat="47.26909" lon="-1.53265">
        <ele>10.1</ele>
        <time>2023-04-25T11:15:53.879Z</time>
      </trkpt>
      <trkpt lat="47.2693" lon="-1.53284">
        <ele>7.9</ele>
        <time>2023-04-25T11:16:15.194Z</time>
      </trkpt>
      <trkpt lat="47.26939" lon="-1.53286">
        <ele>7.2</ele>
        <time>2023-04-25T11:16:23.067Z</time>
      </trkpt>
      <trkpt lat="47.26956" lon="-1.53278">
        <ele>7</ele>
        <time>2023-04-25T11:16:40.114Z</time>
      </trkpt>
      <trkpt lat="47.26975" lon="-1.53278">
        <ele>6.7</ele>
        <time>2023-04-25T11:16:58.015Z</time>
      </trkpt>
      <trkpt lat="47.26995" lon="-1.53263">
        <ele>6.2</ele>
        <time>2023-04-25T11:17:18.748Z</time>
      </trkpt>
      <trkpt lat="47.27002" lon="-1.53252">
        <ele>6.6</ele>
        <time>2023-04-25T11:17:30.192Z</time>
      </trkpt>
      <trkpt lat="47.27028" lon="-1.53191">
        <ele>6.1</ele>
        <time>2023-04-25T11:18:17.024Z</time>
      </trkpt>
      <trkpt lat="47.27043" lon="-1.53184">
        <ele>6.5</ele>
        <time>2023-04-25T11:18:33.866Z</time>
      </trkpt>
      <trkpt lat="47.27074" lon="-1.53193">
        <ele>5.2</ele>
        <time>2023-04-25T11:19:01.472Z</time>
      </trkpt>
      <trkpt lat="47.2709" lon="-1.53189">
        <ele>5.5</ele>
        <time>2023-04-25T11:19:18.466Z</time>
      </trkpt>
      <trkpt lat="47.27176" lon="-1.5311">
        <ele>6</ele>
        <time>2023-04-25T11:21:00.184Z</time>
      </trkpt>
      <trkpt lat="47.27193" lon="-1.53074">
        <ele>6.7</ele>
        <time>2023-04-25T11:21:31.847Z</time>
      </trkpt>
      <trkpt lat="47.27246" lon="-1.53021">
        <ele>6.6</ele>
        <time>2023-04-25T11:22:34.860Z</time>
      </trkpt>
      <trkpt lat="47.27268" lon="-1.52981">
        <ele>7.6</ele>
        <time>2023-04-25T11:23:12.640Z</time>
      </trkpt>
      <trkpt lat="47.273" lon="-1.52942">
        <ele>6.7</ele>
        <time>2023-04-25T11:23:51.074Z</time>
      </trkpt>
      <trkpt lat="47.27305" lon="-1.52934">
        <ele>6.5</ele>
        <time>2023-04-25T11:23:57.795Z</time>
      </trkpt>
      <trkpt lat="47.27308" lon="-1.52915">
        <ele>6.8</ele>
        <time>2023-04-25T11:24:11.839Z</time>
      </trkpt>
      <trkpt lat="47.27322" lon="-1.52892">
        <ele>5.8</ele>
        <time>2023-04-25T11:24:29.974Z</time>
      </trkpt>
      <trkpt lat="47.27377" lon="-1.52866">
        <ele>6.9</ele>
        <time>2023-04-25T11:25:30.564Z</time>
      </trkpt>
      <trkpt lat="47.27436" lon="-1.52832">
        <ele>6.3</ele>
        <time>2023-04-25T11:26:31.400Z</time>
      </trkpt>
      <trkpt lat="47.27476" lon="-1.52798">
        <ele>6</ele>
        <time>2023-04-25T11:27:16.148Z</time>
      </trkpt>
      <trkpt lat="47.27494" lon="-1.52766">
        <ele>5.1</ele>
        <time>2023-04-25T11:27:41.468Z</time>
      </trkpt>
      <trkpt lat="47.27511" lon="-1.52721">
        <ele>5.8</ele>
        <time>2023-04-25T11:28:18.240Z</time>
      </trkpt>
      <trkpt lat="47.27534" lon="-1.5269">
        <ele>5.1</ele>
        <time>2023-04-25T11:28:47.020Z</time>
      </trkpt>
      <trkpt lat="47.27536" lon="-1.5268">
        <ele>5.6</ele>
        <time>2023-04-25T11:28:55.799Z</time>
      </trkpt>
      <trkpt lat="47.27532" lon="-1.52658">
        <ele>7.1</ele>
        <time>2023-04-25T11:29:16.788Z</time>
      </trkpt>
      <trkpt lat="47.27557" lon="-1.52623">
        <ele>7.5</ele>
        <time>2023-04-25T11:29:52.123Z</time>
      </trkpt>
      <trkpt lat="47.27571" lon="-1.5254">
        <ele>7</ele>
        <time>2023-04-25T11:30:47.993Z</time>
      </trkpt>
      <trkpt lat="47.27576" lon="-1.52534">
        <ele>6.9</ele>
        <time>2023-04-25T11:30:54.073Z</time>
      </trkpt>
      <trkpt lat="47.27605" lon="-1.52533">
        <ele>7.4</ele>
        <time>2023-04-25T11:31:24.329Z</time>
      </trkpt>
      <trkpt lat="47.276" lon="-1.52508">
        <ele>9.6</ele>
        <time>2023-04-25T11:31:50.785Z</time>
      </trkpt>
      <trkpt lat="47.27607" lon="-1.52483">
        <ele>11.7</ele>
        <time>2023-04-25T11:32:17.276Z</time>
      </trkpt>
      <trkpt lat="47.27622" lon="-1.52382">
        <ele>16.3</ele>
        <time>2023-04-25T11:33:42.857Z</time>
      </trkpt>
      <trkpt lat="47.27649" lon="-1.52343">
        <ele>17.3</ele>
        <time>2023-04-25T11:34:23.455Z</time>
      </trkpt>
      <trkpt lat="47.2765" lon="-1.52334">
        <ele>17.6</ele>
        <time>2023-04-25T11:34:30.589Z</time>
      </trkpt>
      <trkpt lat="47.27666" lon="-1.52347">
        <ele>16.5</ele>
        <time>2023-04-25T11:34:46.392Z</time>
      </trkpt>
      <trkpt lat="47.27676" lon="-1.52371">
        <ele>15.7</ele>
        <time>2023-04-25T11:35:03.053Z</time>
      </trkpt>
      <trkpt lat="47.27715" lon="-1.52433">
        <ele>13.8</ele>
        <time>2023-04-25T11:35:54.368Z</time>
      </trkpt>
      <trkpt lat="47.27727" lon="-1.52438">
        <ele>14</ele>
        <time>2023-04-25T11:36:07.326Z</time>
      </trkpt>
      <trkpt lat="47.27767" lon="-1.52411">
        <ele>13.4</ele>
        <time>2023-04-25T11:36:49.045Z</time>
      </trkpt>
      <trkpt lat="47.27774" lon="-1.52408">
        <ele>13.2</ele>
        <time>2023-04-25T11:36:55.678Z</time>
      </trkpt>
      <trkpt lat="47.27788" lon="-1.52412">
        <ele>13</ele>
        <time>2023-04-25T11:37:09.185Z</time>
      </trkpt>
      <trkpt lat="47.27833" lon="-1.52384">
        <ele>11.8</ele>
        <time>2023-04-25T11:37:54.006Z</time>
      </trkpt>
      <trkpt lat="47.27861" lon="-1.52373">
        <ele>10</ele>
        <time>2023-04-25T11:38:19.072Z</time>
      </trkpt>
      <trkpt lat="47.27876" lon="-1.52354">
        <ele>9.1</ele>
        <time>2023-04-25T11:38:36.179Z</time>
      </trkpt>
      <trkpt lat="47.27902" lon="-1.52305">
        <ele>7.6</ele>
        <time>2023-04-25T11:39:13.665Z</time>
      </trkpt>
      <trkpt lat="47.27921" lon="-1.52279">
        <ele>6.7</ele>
        <time>2023-04-25T11:39:36.749Z</time>
      </trkpt>
      <trkpt lat="47.27927" lon="-1.52275">
        <ele>6.2</ele>
        <time>2023-04-25T11:39:42.445Z</time>
      </trkpt>
      <trkpt lat="47.27932" lon="-1.52275">
        <ele>5.8</ele>
        <time>2023-04-25T11:39:46.770Z</time>
      </trkpt>
      <trkpt lat="47.27972" lon="-1.52297">
        <ele>7</ele>
        <time>2023-04-25T11:40:32.861Z</time>
      </trkpt>
      <trkpt lat="47.28007" lon="-1.52329">
        <ele>12.2</ele>
        <time>2023-04-25T11:41:34.889Z</time>
      </trkpt>
      <trkpt lat="47.28027" lon="-1.5233">
        <ele>13.9</ele>
        <time>2023-04-25T11:42:00.956Z</time>
      </trkpt>
      <trkpt lat="47.28034" lon="-1.52334">
        <ele>14.7</ele>
        <time>2023-04-25T11:42:11.498Z</time>
      </trkpt>
      <trkpt lat="47.28044" lon="-1.52363">
        <ele>16.2</ele>
        <time>2023-04-25T11:42:38.639Z</time>
      </trkpt>
      <trkpt lat="47.28044" lon="-1.52407">
        <ele>16.6</ele>
        <time>2023-04-25T11:43:09.401Z</time>
      </trkpt>
      <trkpt lat="47.28047" lon="-1.52427">
        <ele>16.8</ele>
        <time>2023-04-25T11:43:23.766Z</time>
      </trkpt>
      <trkpt lat="47.28054" lon="-1.52433">
        <ele>17</ele>
        <time>2023-04-25T11:43:32.414Z</time>
      </trkpt>
      <trkpt lat="47.28077" lon="-1.52436">
        <ele>17.2</ele>
        <time>2023-04-25T11:43:55.860Z</time>
      </trkpt>
      <trkpt lat="47.28112" lon="-1.52452">
        <ele>16.7</ele>
        <time>2023-04-25T11:44:30.608Z</time>
      </trkpt>
      <trkpt lat="47.28125" lon="-1.52452">
        <ele>15.5</ele>
        <time>2023-04-25T11:44:41.853Z</time>
      </trkpt>
      <trkpt lat="47.2814" lon="-1.52441">
        <ele>15</ele>
        <time>2023-04-25T11:44:56.987Z</time>
      </trkpt>
      <trkpt lat="47.2816" lon="-1.52418">
        <ele>15</ele>
        <time>2023-04-25T11:45:22.064Z</time>
      </trkpt>
      <trkpt lat="47.28179" lon="-1.52412">
        <ele>14.9</ele>
        <time>2023-04-25T11:45:40.972Z</time>
      </trkpt>
      <trkpt lat="47.2824" lon="-1.5241">
        <ele>15.1</ele>
        <time>2023-04-25T11:46:41.903Z</time>
      </trkpt>
      <trkpt lat="47.2825" lon="-1.52413">
        <ele>15.3</ele>
        <time>2023-04-25T11:46:52.627Z</time>
      </trkpt>
      <trkpt lat="47.28276" lon="-1.52447">
        <ele>12.5</ele>
        <time>2023-04-25T11:47:22.691Z</time>
      </trkpt>
      <trkpt lat="47.28291" lon="-1.52455">
        <ele>11.5</ele>
        <time>2023-04-25T11:47:36.489Z</time>
      </trkpt>
      <trkpt lat="47.28312" lon="-1.52457">
        <ele>11.2</ele>
        <time>2023-04-25T11:47:56.407Z</time>
      </trkpt>
      <trkpt lat="47.2833" lon="-1.52451">
        <ele>10.6</ele>
        <time>2023-04-25T11:48:12.946Z</time>
      </trkpt>
      <trkpt lat="47.28338" lon="-1.52452">
        <ele>10.5</ele>
        <time>2023-04-25T11:48:20.587Z</time>
      </trkpt>
      <trkpt lat="47.28355" lon="-1.52461">
        <ele>11.3</ele>
        <time>2023-04-25T11:48:41.130Z</time>
      </trkpt>
      <trkpt lat="47.28379" lon="-1.52488">
        <ele>9.7</ele>
        <time>2023-04-25T11:49:07.245Z</time>
      </trkpt>
      <trkpt lat="47.28418" lon="-1.52507">
        <ele>10.8</ele>
        <time>2023-04-25T11:49:51.401Z</time>
      </trkpt>
      <trkpt lat="47.28428" lon="-1.52508">
        <ele>11</ele>
        <time>2023-04-25T11:50:01.945Z</time>
      </trkpt>
      <trkpt lat="47.28478" lon="-1.52498">
        <ele>14.8</ele>
        <time>2023-04-25T11:51:05.553Z</time>
      </trkpt>
      <trkpt lat="47.28493" lon="-1.5249">
        <ele>17</ele>
        <time>2023-04-25T11:51:30.614Z</time>
      </trkpt>
      <trkpt lat="47.28514" lon="-1.52443">
        <ele>21</ele>
        <time>2023-04-25T11:52:23.882Z</time>
      </trkpt>
      <trkpt lat="47.28531" lon="-1.52435">
        <ele>22.1</ele>
        <time>2023-04-25T11:52:45.370Z</time>
      </trkpt>
      <trkpt lat="47.2853" lon="-1.52452">
        <ele>21.8</ele>
        <time>2023-04-25T11:52:55.949Z</time>
      </trkpt>
      <trkpt lat="47.28522" lon="-1.52483">
        <ele>20.1</ele>
        <time>2023-04-25T11:53:15.411Z</time>
      </trkpt>
      <trkpt lat="47.28521" lon="-1.52514">
        <ele>18.8</ele>
        <time>2023-04-25T11:53:33.621Z</time>
      </trkpt>
      <trkpt lat="47.28525" lon="-1.52518">
        <ele>19.1</ele>
        <time>2023-04-25T11:53:39.450Z</time>
      </trkpt>
      <trkpt lat="47.28549" lon="-1.52512">
        <ele>21.1</ele>
        <time>2023-04-25T11:54:10.858Z</time>
      </trkpt>
      <trkpt lat="47.28616" lon="-1.52564">
        <ele>13.1</ele>
        <time>2023-04-25T11:55:16.355Z</time>
      </trkpt>
      <trkpt lat="47.28727" lon="-1.52691">
        <ele>5.5</ele>
        <time>2023-04-25T11:57:17.895Z</time>
      </trkpt>
      <trkpt lat="47.28744" lon="-1.52694">
        <ele>5.8</ele>
        <time>2023-04-25T11:57:35.769Z</time>
      </trkpt>
      <trkpt lat="47.28767" lon="-1.52679">
        <ele>6.2</ele>
        <time>2023-04-25T11:58:01.892Z</time>
      </trkpt>
      <trkpt lat="47.2878" lon="-1.52679">
        <ele>5.9</ele>
        <time>2023-04-25T11:58:13.874Z</time>
      </trkpt>
      <trkpt lat="47.28785" lon="-1.52687">
        <ele>6.4</ele>
        <time>2023-04-25T11:58:22.942Z</time>
      </trkpt>
      <trkpt lat="47.2879" lon="-1.52717">
        <ele>6.4</ele>
        <time>2023-04-25T11:58:43.658Z</time>
      </trkpt>
      <trkpt lat="47.288" lon="-1.52734">
        <ele>7.4</ele>
        <time>2023-04-25T11:59:02.276Z</time>
      </trkpt>
      <trkpt lat="47.28815" lon="-1.52745">
        <ele>8.1</ele>
        <time>2023-04-25T11:59:21.175Z</time>
      </trkpt>
      <trkpt lat="47.28869" lon="-1.52766">
        <ele>8.4</ele>
        <time>2023-04-25T12:00:17.308Z</time>
      </trkpt>
      <trkpt lat="47.28932" lon="-1.52808">
        <ele>8.7</ele>
        <time>2023-04-25T12:01:26.581Z</time>
      </trkpt>
      <trkpt lat="47.28962" lon="-1.52821">
        <ele>8.8</ele>
        <time>2023-04-25T12:01:57.800Z</time>
      </trkpt>
      <trkpt lat="47.2899" lon="-1.52859">
        <ele>8.1</ele>
        <time>2023-04-25T12:02:33.374Z</time>
      </trkpt>
      <trkpt lat="47.29082" lon="-1.52998">
        <ele>7</ele>
        <time>2023-04-25T12:04:40.312Z</time>
      </trkpt>
      <trkpt lat="47.29101" lon="-1.53011">
        <ele>7.3</ele>
        <time>2023-04-25T12:05:01.961Z</time>
      </trkpt>
      <trkpt lat="47.29133" lon="-1.53013">
        <ele>7.1</ele>
        <time>2023-04-25T12:05:33.023Z</time>
      </trkpt>
      <trkpt lat="47.2928" lon="-1.53002">
        <ele>6.8</ele>
        <time>2023-04-25T12:07:57.622Z</time>
      </trkpt>
      <trkpt lat="47.29289" lon="-1.52997">
        <ele>6.8</ele>
        <time>2023-04-25T12:08:07.129Z</time>
      </trkpt>
      <trkpt lat="47.2931" lon="-1.52976">
        <ele>7.4</ele>
        <time>2023-04-25T12:08:34.137Z</time>
      </trkpt>
      <trkpt lat="47.29328" lon="-1.52945">
        <ele>8.1</ele>
        <time>2023-04-25T12:09:03.751Z</time>
      </trkpt>
      <trkpt lat="47.29355" lon="-1.52881">
        <ele>8.7</ele>
        <time>2023-04-25T12:09:56.160Z</time>
      </trkpt>
      <trkpt lat="47.29361" lon="-1.52873">
        <ele>8.6</ele>
        <time>2023-04-25T12:10:03.861Z</time>
      </trkpt>
      <trkpt lat="47.29372" lon="-1.52869">
        <ele>7.6</ele>
        <time>2023-04-25T12:10:13.661Z</time>
      </trkpt>
      <trkpt lat="47.29399" lon="-1.52831">
        <ele>6.3</ele>
        <time>2023-04-25T12:10:46.885Z</time>
      </trkpt>
      <trkpt lat="47.29404" lon="-1.52833">
        <ele>5.9</ele>
        <time>2023-04-25T12:10:51.366Z</time>
      </trkpt>
      <trkpt lat="47.2941" lon="-1.5283">
        <ele>5.5</ele>
        <time>2023-04-25T12:10:56.846Z</time>
      </trkpt>
      <trkpt lat="47.29411" lon="-1.52817">
        <ele>5.4</ele>
        <time>2023-04-25T12:11:05.321Z</time>
      </trkpt>
      <trkpt lat="47.29406" lon="-1.52811">
        <ele>5.8</ele>
        <time>2023-04-25T12:11:13.095Z</time>
      </trkpt>
      <trkpt lat="47.29418" lon="-1.52792">
        <ele>5.5</ele>
        <time>2023-04-25T12:11:29.622Z</time>
      </trkpt>
      <trkpt lat="47.29417" lon="-1.52775">
        <ele>5.9</ele>
        <time>2023-04-25T12:11:42.377Z</time>
      </trkpt>
      <trkpt lat="47.29413" lon="-1.52758">
        <ele>5.5</ele>
        <time>2023-04-25T12:11:53.306Z</time>
      </trkpt>
      <trkpt lat="47.29405" lon="-1.52743">
        <ele>5.7</ele>
        <time>2023-04-25T12:12:06.729Z</time>
      </trkpt>
      <trkpt lat="47.29392" lon="-1.52728">
        <ele>6.1</ele>
        <time>2023-04-25T12:12:24.332Z</time>
      </trkpt>
      <trkpt lat="47.29385" lon="-1.52706">
        <ele>6.4</ele>
        <time>2023-04-25T12:12:41.575Z</time>
      </trkpt>
      <trkpt lat="47.29385" lon="-1.52693">
        <ele>6.4</ele>
        <time>2023-04-25T12:12:50.292Z</time>
      </trkpt>
      <trkpt lat="47.29394" lon="-1.52668">
        <ele>5.8</ele>
        <time>2023-04-25T12:13:07.560Z</time>
      </trkpt>
      <trkpt lat="47.29396" lon="-1.52651">
        <ele>6.1</ele>
        <time>2023-04-25T12:13:20.094Z</time>
      </trkpt>
      <trkpt lat="47.29401" lon="-1.52558">
        <ele>6.1</ele>
        <time>2023-04-25T12:14:22.645Z</time>
      </trkpt>
      <trkpt lat="47.29415" lon="-1.52499">
        <ele>5.1</ele>
        <time>2023-04-25T12:15:01.661Z</time>
      </trkpt>
      <trkpt lat="47.29455" lon="-1.52533">
        <ele>5</ele>
        <time>2023-04-25T12:15:47.001Z</time>
      </trkpt>
      <trkpt lat="47.29505" lon="-1.52588">
        <ele>5.7</ele>
        <time>2023-04-25T12:16:50.853Z</time>
      </trkpt>
      <trkpt lat="47.2952" lon="-1.5267">
        <ele>6.3</ele>
        <time>2023-04-25T12:17:49.664Z</time>
      </trkpt>
      <trkpt lat="47.29554" lon="-1.52758">
        <ele>6.8</ele>
        <time>2023-04-25T12:18:59.114Z</time>
      </trkpt>
      <trkpt lat="47.29551" lon="-1.52772">
        <ele>6.5</ele>
        <time>2023-04-25T12:19:08.101Z</time>
      </trkpt>
      <trkpt lat="47.29568" lon="-1.52882">
        <ele>6.4</ele>
        <time>2023-04-25T12:20:23.440Z</time>
      </trkpt>
      <trkpt lat="47.29568" lon="-1.52931">
        <ele>5.6</ele>
        <time>2023-04-25T12:20:53.979Z</time>
      </trkpt>
      <trkpt lat="47.29572" lon="-1.52957">
        <ele>5.5</ele>
        <time>2023-04-25T12:21:11.554Z</time>
      </trkpt>
      <trkpt lat="47.2958" lon="-1.52976">
        <ele>5.6</ele>
        <time>2023-04-25T12:21:26.857Z</time>
      </trkpt>
      <trkpt lat="47.29591" lon="-1.52992">
        <ele>5.6</ele>
        <time>2023-04-25T12:21:42.132Z</time>
      </trkpt>
      <trkpt lat="47.29612" lon="-1.53005">
        <ele>5.9</ele>
        <time>2023-04-25T12:22:05.587Z</time>
      </trkpt>
      <trkpt lat="47.29628" lon="-1.53041">
        <ele>5.4</ele>
        <time>2023-04-25T12:22:32.977Z</time>
      </trkpt>
      <trkpt lat="47.2967" lon="-1.5307">
        <ele>5.7</ele>
        <time>2023-04-25T12:23:19.750Z</time>
      </trkpt>
      <trkpt lat="47.29691" lon="-1.53081">
        <ele>6</ele>
        <time>2023-04-25T12:23:42.722Z</time>
      </trkpt>
      <trkpt lat="47.29707" lon="-1.53083">
        <ele>6.5</ele>
        <time>2023-04-25T12:24:00.225Z</time>
      </trkpt>
      <trkpt lat="47.29739" lon="-1.5308">
        <ele>6.4</ele>
        <time>2023-04-25T12:24:31.621Z</time>
      </trkpt>
      <trkpt lat="47.29841" lon="-1.53041">
        <ele>6.6</ele>
        <time>2023-04-25T12:26:16.402Z</time>
      </trkpt>
      <trkpt lat="47.29851" lon="-1.53024">
        <ele>6.4</ele>
        <time>2023-04-25T12:26:30.897Z</time>
      </trkpt>
      <trkpt lat="47.29857" lon="-1.53001">
        <ele>6.7</ele>
        <time>2023-04-25T12:26:48.368Z</time>
      </trkpt>
      <trkpt lat="47.29943" lon="-1.52957">
        <ele>6.4</ele>
        <time>2023-04-25T12:28:17.451Z</time>
      </trkpt>
      <trkpt lat="47.2997" lon="-1.52924">
        <ele>8.1</ele>
        <time>2023-04-25T12:28:57.885Z</time>
      </trkpt>
      <trkpt lat="47.29986" lon="-1.52911">
        <ele>8</ele>
        <time>2023-04-25T12:29:15.643Z</time>
      </trkpt>
      <trkpt lat="47.30009" lon="-1.52898">
        <ele>7.6</ele>
        <time>2023-04-25T12:29:38.818Z</time>
      </trkpt>
      <trkpt lat="47.30031" lon="-1.52893">
        <ele>6.3</ele>
        <time>2023-04-25T12:29:58.073Z</time>
      </trkpt>
      <trkpt lat="47.30065" lon="-1.52864">
        <ele>6.7</ele>
        <time>2023-04-25T12:30:38.147Z</time>
      </trkpt>
      <trkpt lat="47.30085" lon="-1.52834">
        <ele>7.8</ele>
        <time>2023-04-25T12:31:09.996Z</time>
      </trkpt>
      <trkpt lat="47.30118" lon="-1.5277">
        <ele>6.9</ele>
        <time>2023-04-25T12:32:01.251Z</time>
      </trkpt>
      <trkpt lat="47.30118" lon="-1.52762">
        <ele>7.4</ele>
        <time>2023-04-25T12:32:08.496Z</time>
      </trkpt>
      <trkpt lat="47.30113" lon="-1.52755">
        <ele>8.4</ele>
        <time>2023-04-25T12:32:19.615Z</time>
      </trkpt>
      <trkpt lat="47.30073" lon="-1.52717">
        <ele>13.7</ele>
        <time>2023-04-25T12:33:27.570Z</time>
      </trkpt>
      <trkpt lat="47.30066" lon="-1.52679">
        <ele>13.6</ele>
        <time>2023-04-25T12:33:53.667Z</time>
      </trkpt>
      <trkpt lat="47.30048" lon="-1.52652">
        <ele>14.3</ele>
        <time>2023-04-25T12:34:21.311Z</time>
      </trkpt>
      <trkpt lat="47.30061" lon="-1.52605">
        <ele>12.8</ele>
        <time>2023-04-25T12:34:51.174Z</time>
      </trkpt>
      <trkpt lat="47.30081" lon="-1.52552">
        <ele>11.2</ele>
        <time>2023-04-25T12:35:27.350Z</time>
      </trkpt>
      <trkpt lat="47.30128" lon="-1.52575">
        <ele>9.4</ele>
        <time>2023-04-25T12:36:11.231Z</time>
      </trkpt>
      <trkpt lat="47.30182" lon="-1.52588">
        <ele>5.4</ele>
        <time>2023-04-25T12:36:58.559Z</time>
      </trkpt>
      <trkpt lat="47.30188" lon="-1.5257">
        <ele>5.1</ele>
        <time>2023-04-25T12:37:11.134Z</time>
      </trkpt>
      <trkpt lat="47.30204" lon="-1.52573">
        <ele>4.4</ele>
        <time>2023-04-25T12:37:25.134Z</time>
      </trkpt>
      <trkpt lat="47.30217" lon="-1.52553">
        <ele>5.1</ele>
        <time>2023-04-25T12:37:46.020Z</time>
      </trkpt>
      <trkpt lat="47.3024" lon="-1.52489">
        <ele>5</ele>
        <time>2023-04-25T12:38:34.274Z</time>
      </trkpt>
      <trkpt lat="47.30272" lon="-1.5245">
        <ele>5</ele>
        <time>2023-04-25T12:39:15.314Z</time>
      </trkpt>
      <trkpt lat="47.30311" lon="-1.52425">
        <ele>5.4</ele>
        <time>2023-04-25T12:39:58.595Z</time>
      </trkpt>
      <trkpt lat="47.30359" lon="-1.5241">
        <ele>6.2</ele>
        <time>2023-04-25T12:40:49.624Z</time>
      </trkpt>
      <trkpt lat="47.30293" lon="-1.52347">
        <ele>7</ele>
        <time>2023-04-25T12:42:09.834Z</time>
      </trkpt>
      <trkpt lat="47.30282" lon="-1.52329">
        <ele>7.1</ele>
        <time>2023-04-25T12:42:26.386Z</time>
      </trkpt>
      <trkpt lat="47.3026" lon="-1.52344">
        <ele>7</ele>
        <time>2023-04-25T12:42:50.046Z</time>
      </trkpt>
      <trkpt lat="47.30253" lon="-1.52345">
        <ele>7</ele>
        <time>2023-04-25T12:42:56.998Z</time>
      </trkpt>
      <trkpt lat="47.30243" lon="-1.52324">
        <ele>6.5</ele>
        <time>2023-04-25T12:43:12.769Z</time>
      </trkpt>
      <trkpt lat="47.30201" lon="-1.52285">
        <ele>6</ele>
        <time>2023-04-25T12:44:00.346Z</time>
      </trkpt>
      <trkpt lat="47.30127" lon="-1.51978">
        <ele>11</ele>
        <time>2023-04-25T12:47:54.760Z</time>
      </trkpt>
      <trkpt lat="47.30126" lon="-1.51967">
        <ele>11.2</ele>
        <time>2023-04-25T12:48:02.846Z</time>
      </trkpt>
      <trkpt lat="47.30137" lon="-1.51938">
        <ele>12</ele>
        <time>2023-04-25T12:48:27.755Z</time>
      </trkpt>
      <trkpt lat="47.30135" lon="-1.51929">
        <ele>12.1</ele>
        <time>2023-04-25T12:48:34.419Z</time>
      </trkpt>
      <trkpt lat="47.30089" lon="-1.51741">
        <ele>18.3</ele>
        <time>2023-04-25T12:51:09.300Z</time>
      </trkpt>
      <trkpt lat="47.30085" lon="-1.51738">
        <ele>18.4</ele>
        <time>2023-04-25T12:51:14.056Z</time>
      </trkpt>
      <trkpt lat="47.30067" lon="-1.51742">
        <ele>18.9</ele>
        <time>2023-04-25T12:51:33.668Z</time>
      </trkpt>
      <trkpt lat="47.30065" lon="-1.51738">
        <ele>19.1</ele>
        <time>2023-04-25T12:51:37.695Z</time>
      </trkpt>
      <trkpt lat="47.30025" lon="-1.51556">
        <ele>23</ele>
        <time>2023-04-25T12:53:58.638Z</time>
      </trkpt>
      <trkpt lat="47.30004" lon="-1.51387">
        <ele>24</ele>
        <time>2023-04-25T12:55:56.924Z</time>
      </trkpt>
      <trkpt lat="47.30011" lon="-1.51382">
        <ele>24</ele>
        <time>2023-04-25T12:56:04.613Z</time>
      </trkpt>
      <trkpt lat="47.29997" lon="-1.51227">
        <ele>23.9</ele>
        <time>2023-04-25T12:57:49.141Z</time>
      </trkpt>
      <trkpt lat="47.29955" lon="-1.50683">
        <ele>26.8</ele>
        <time>2023-04-25T13:04:05.178Z</time>
      </trkpt>
      <trkpt lat="47.29952" lon="-1.50612">
        <ele>26</ele>
        <time>2023-04-25T13:04:50.520Z</time>
      </trkpt>
      <trkpt lat="47.29949" lon="-1.50604">
        <ele>25.8</ele>
        <time>2023-04-25T13:04:56.080Z</time>
      </trkpt>
      <trkpt lat="47.29935" lon="-1.50361">
        <ele>21.7</ele>
        <time>2023-04-25T13:07:27.742Z</time>
      </trkpt>
      <trkpt lat="47.29914" lon="-1.50052">
        <ele>15.8</ele>
        <time>2023-04-25T13:10:39.020Z</time>
      </trkpt>
    </trkseg>
  </trk>
</gpx>